CGYNG CYXU-CYXU
Flight info
| Callsign | CGYNG |
|---|---|
| Flight time | N/A |
| Altitude | 2000 |
| Route | |
| Aircraft | BE36 |
Departure
| Time | 2026-04-20 23:14 |
|---|---|
| Airport | London International Airport (CYXU) |
Arrival
| Time | N/A |
|---|---|
| Airport | London International Airport (CYXU) |
| Time | Latitude | Longitude | Altitude | Speed | Heading |
|---|---|---|---|---|---|
| 2026-04-20 23:08 | 43.03243 | -81.15390 | 896 ft | 0 kts | 231° |
| 2026-04-20 23:08 | 43.03233 | -81.15392 | 896 ft | 7 kts | 155° |
| 2026-04-20 23:08 | 43.03228 | -81.15276 | 896 ft | 14 kts | 91° |
| 2026-04-20 23:09 | 43.03233 | -81.15238 | 896 ft | 0 kts | 68° |
| 2026-04-20 23:10 | 43.03233 | -81.15237 | 896 ft | 0 kts | 67° |
| 2026-04-20 23:11 | 43.03248 | -81.15209 | 896 ft | 6 kts | 46° |
| 2026-04-20 23:11 | 43.03298 | -81.15145 | 896 ft | 16 kts | 45° |
| 2026-04-20 23:11 | 43.03326 | -81.15106 | 896 ft | 0 kts | 39° |
| 2026-04-20 23:13 | 43.03349 | -81.15076 | 896 ft | 11 kts | 45° |
| 2026-04-20 23:13 | 43.03472 | -81.15113 | 897 ft | 57 kts | 320° |
| 2026-04-20 23:14 | 43.03995 | -81.15724 | 1015 ft | 129 kts | 319° |
| 2026-04-20 23:14 | 43.04773 | -81.16347 | 1346 ft | 134 kts | 345° |
| 2026-04-20 23:14 | 43.05724 | -81.16361 | 1580 ft | 139 kts | 20° |
| 2026-04-20 23:14 | 43.06278 | -81.15331 | 1785 ft | 153 kts | 84° |
| 2026-04-20 23:15 | 43.05823 | -81.14042 | 1834 ft | 160 kts | 140° |
| 2026-04-20 23:15 | 43.04927 | -81.13154 | 1903 ft | 164 kts | 149° |
| 2026-04-20 23:15 | 43.03936 | -81.12321 | 1972 ft | 163 kts | 152° |
| 2026-04-20 23:15 | 43.02955 | -81.11514 | 1998 ft | 168 kts | 147° |
| 2026-04-20 23:16 | 43.01889 | -81.11281 | 2014 ft | 164 kts | 211° |
| 2026-04-20 23:16 | 43.01275 | -81.12366 | 1933 ft | 126 kts | 258° |
| 2026-04-20 23:16 | 43.01830 | -81.13234 | 1139 ft | 133 kts | 326° |
| 2026-04-20 23:16 | 43.02518 | -81.13939 | 905 ft | 109 kts | 317° |
| 2026-04-20 23:17 | 43.02978 | -81.14502 | 896 ft | 70 kts | 318° |
| 2026-04-20 23:17 | 43.03432 | -81.15029 | 982 ft | 112 kts | 317° |
| 2026-04-20 23:17 | 43.04121 | -81.15816 | 1319 ft | 141 kts | 324° |
| 2026-04-20 23:17 | 43.05077 | -81.15946 | 1826 ft | 151 kts | 25° |
| 2026-04-20 23:18 | 43.05580 | -81.14692 | 2155 ft | 171 kts | 99° |
| 2026-04-20 23:18 | 43.04926 | -81.13215 | 2125 ft | 190 kts | 128° |
| 2026-04-20 23:18 | 43.03984 | -81.11879 | 2102 ft | 202 kts | 137° |
| 2026-04-20 23:18 | 43.03027 | -81.10653 | 2451 ft | 175 kts | 137° |
| 2026-04-20 23:19 | 43.02084 | -81.09619 | 2366 ft | 177 kts | 161° |
| 2026-04-20 23:19 | 43.00961 | -81.09882 | 2324 ft | 169 kts | 224° |
| 2026-04-20 23:19 | 43.00476 | -81.11321 | 1955 ft | 176 kts | 271° |
| 2026-04-20 23:19 | 43.01133 | -81.12613 | 1609 ft | 179 kts | 329° |
| 2026-04-20 23:20 | 43.02167 | -81.13468 | 1252 ft | 161 kts | 318° |
| 2026-04-20 23:20 | 43.03107 | -81.14192 | 1326 ft | 161 kts | 354° |
| 2026-04-20 23:20 | 43.04079 | -81.13502 | 1325 ft | 165 kts | 56° |
| 2026-04-20 23:20 | 43.04287 | -81.11996 | 1372 ft | 167 kts | 104° |
| 2026-04-20 23:21 | 43.03647 | -81.10703 | 1490 ft | 160 kts | 137° |
| 2026-04-20 23:21 | 43.02719 | -81.09921 | 1572 ft | 163 kts | 170° |
| 2026-04-20 23:21 | 43.01626 | -81.09937 | 1826 ft | 149 kts | 189° |
| 2026-04-20 23:21 | 43.00725 | -81.10545 | 1908 ft | 149 kts | 232° |
| 2026-04-20 23:22 | 43.00536 | -81.11861 | 1948 ft | 150 kts | 299° |
| 2026-04-20 23:22 | 43.01360 | -81.12746 | 1428 ft | 150 kts | 328° |
| 2026-04-20 23:22 | 43.02202 | -81.13569 | 989 ft | 144 kts | 317° |
| 2026-04-20 23:22 | 43.02819 | -81.14306 | 902 ft | 89 kts | 317° |
| 2026-04-20 23:23 | 43.03264 | -81.14844 | 902 ft | 104 kts | 321° |
| 2026-04-20 23:23 | 43.03866 | -81.15524 | 1088 ft | 117 kts | 320° |
| 2026-04-20 23:23 | 43.04613 | -81.15762 | 1262 ft | 136 kts | 29° |
| 2026-04-20 23:23 | 43.05188 | -81.14678 | 1410 ft | 148 kts | 74° |
| 2026-04-20 23:24 | 43.04857 | -81.13444 | 1687 ft | 148 kts | 135° |
| 2026-04-20 23:24 | 43.04086 | -81.12462 | 1802 ft | 153 kts | 142° |
| 2026-04-20 23:24 | 43.03231 | -81.11683 | 1713 ft | 144 kts | 160° |
| 2026-04-20 23:24 | 43.02394 | -81.12018 | 1453 ft | 134 kts | 237° |
| 2026-04-20 23:25 | 43.02113 | -81.13067 | 1159 ft | 111 kts | 274° |
| 2026-04-20 23:25 | 43.02487 | -81.13912 | 907 ft | 101 kts | 316° |
| 2026-04-20 23:25 | 43.02933 | -81.14451 | 896 ft | 73 kts | 316° |
| 2026-04-20 23:25 | 43.03493 | -81.15046 | 1119 ft | 121 kts | 328° |